CheckWX is a tool to help pilots better visualize weather data.  It is not intended as a substitute for an official pre-flight weather briefing.

21:05:29 UTC

CYNA METAR
Natashquan Airport
Natashquan, Canada
Current

1 hour ago

CYNA 232000Z AUTO 29014G20KT 9SM CLR M10/M20 A3009 RMK SLP191
Observed
Feb-23 @ 20:00 UTC
Wind
  • 290° at 14 KTS
  • Gusting to 20 KTS
Visibility
9 SM
Flight Rules
VFR
Cloud Levels
  • Clear skies
Temperature
-10°C / 14°F
Dewpoint
-20°C / -4°F
Humidity
44%
Altimeter
30.09" Hg
Pressure
1019.1 hPa
Previous

2 hours ago

CYNA 231900Z AUTO 28018G23KT 9SM CLR M11/M20 A3008 RMK SLP189
Observed
Feb-23 @ 19:00 UTC
Wind
  • 280° at 18 KTS
  • Gusting to 23 KTS
Visibility
9 SM
Flight Rules
VFR
Cloud Levels
  • Clear skies
Temperature
-11°C / 12°F
Dewpoint
-20°C / -4°F
Humidity
48%
Altimeter
30.08" Hg
Pressure
1018.9 hPa
Previous

3 hours ago

CYNA 231800Z AUTO 28017G22KT 9SM CLR M12/M20 A3009 RMK SLP191
Observed
Feb-23 @ 18:00 UTC
Wind
  • 280° at 17 KTS
  • Gusting to 22 KTS
Visibility
9 SM
Flight Rules
VFR
Cloud Levels
  • Clear skies
Temperature
-12°C / 10°F
Dewpoint
-20°C / -4°F
Humidity
52%
Altimeter
30.09" Hg
Pressure
1019.1 hPa